Time;durP1;ratioP1;P1;durP2;ratioP2;P2;SDS_P1;SDS_P2;PMS_P1;PMS_P2;Temp;Humidity;BMP_temperature;BMP_pressure;BME280_temperature;BME280_humidity;BME280_pressure;Samples;Min_cycle;Max_cycle;Signal;HPM_P1;HPM_P2
2022/04/20 00:02:15;;;;;;;1.95;1.40;;;22.70;35.60;;;;;;5034861;28;20383;-66
2022/04/20 00:04:40;;;;;;;2.20;1.60;;;22.70;35.70;;;;;;5034286;28;20761;-66
2022/04/20 00:07:06;;;;;;;2.30;1.40;;;22.70;35.90;;;;;;5034755;28;20824;-64
2022/04/20 00:09:32;;;;;;;3.22;1.30;;;22.60;35.90;;;;;;5034525;28;20406;-66
2022/04/20 00:11:57;;;;;;;2.40;1.40;;;22.70;35.90;;;;;;5034601;28;20445;-66
2022/04/20 00:14:23;;;;;;;1.73;1.40;;;22.60;35.50;;;;;;5034519;28;20375;-67
2022/04/20 00:16:49;;;;;;;2.83;1.60;;;22.60;35.60;;;;;;5034034;28;20910;-67
2022/04/20 00:19:14;;;;;;;2.67;1.33;;;22.70;35.60;;;;;;5033212;28;20744;-67
2022/04/20 00:21:40;;;;;;;1.88;1.33;;;22.70;35.70;;;;;;5034261;28;20398;-67
2022/04/20 00:24:06;;;;;;;1.83;1.20;;;22.60;35.80;;;;;;5034354;28;20417;-66
2022/04/20 00:26:31;;;;;;;2.35;1.52;;;22.60;36.00;;;;;;5034376;28;20383;-66
2022/04/20 00:28:57;;;;;;;2.23;1.40;;;22.60;36.00;;;;;;5033824;28;20387;-66
2022/04/20 00:31:22;;;;;;;2.42;1.40;;;22.60;35.90;;;;;;5033046;28;20403;-66
2022/04/20 00:33:48;;;;;;;2.63;1.50;;;22.70;36.00;;;;;;5033999;28;20427;-67
2022/04/20 00:36:14;;;;;;;2.15;1.35;;;22.60;35.90;;;;;;5034205;28;20728;-67
2022/04/20 00:38:39;;;;;;;2.20;1.60;;;22.60;35.80;;;;;;5032588;28;20446;-66
2022/04/20 00:41:06;;;;;;;2.50;1.55;;;22.60;35.70;;;;;;5033948;28;20395;-67
2022/04/20 00:43:32;;;;;;;1.98;1.63;;;22.60;35.40;;;;;;5034003;28;20461;-67
2022/04/20 00:46:00;;;;;;;2.20;1.45;;;22.60;35.30;;;;;;5033978;28;20395;-66
2022/04/20 00:48:27;;;;;;;1.92;1.33;;;22.60;35.50;;;;;;5033946;28;20391;-67
2022/04/20 00:50:52;;;;;;;2.50;1.48;;;22.60;35.50;;;;;;5032412;28;20509;-66
2022/04/20 00:53:18;;;;;;;2.17;1.40;;;22.60;35.80;;;;;;5033913;28;20486;-66
2022/04/20 00:55:44;;;;;;;3.10;1.50;;;22.50;35.70;;;;;;5033791;28;20787;-66
2022/04/20 00:58:10;;;;;;;2.30;1.40;;;22.60;35.80;;;;;;5033716;28;20838;-67
2022/04/20 01:00:35;;;;;;;2.17;1.50;;;22.60;35.90;;;;;;5033382;28;20448;-66
2022/04/20 01:03:02;;;;;;;2.38;1.40;;;22.60;35.90;;;;;;5033453;28;20481;-66
2022/04/20 01:05:27;;;;;;;1.85;1.60;;;22.50;35.70;;;;;;5033665;28;20438;-67
2022/04/20 01:07:55;;;;;;;2.80;1.42;;;22.50;35.80;;;;;;5033574;28;20426;-67
2022/04/20 01:10:20;;;;;;;3.22;1.48;;;22.50;35.80;;;;;;5033461;28;20415;-66
2022/04/20 01:12:46;;;;;;;2.43;1.53;;;22.50;35.90;;;;;;5033044;28;20398;-67
2022/04/20 01:15:12;;;;;;;1.60;1.27;;;22.50;35.80;;;;;;5033503;28;20514;-67
2022/04/20 01:17:38;;;;;;;2.20;1.40;;;22.50;35.70;;;;;;5033246;28;20430;-67
2022/04/20 01:20:12;;;;;;;3.42;1.40;;;22.50;35.70;;;;;;5033322;28;20481;-67
2022/04/20 01:22:38;;;;;;;2.38;1.55;;;22.50;35.80;;;;;;5033046;28;20383;-66
2022/04/20 01:25:04;;;;;;;1.87;1.57;;;22.50;35.80;;;;;;5033046;28;20402;-66
2022/04/20 01:27:30;;;;;;;2.45;1.48;;;22.50;35.80;;;;;;5033275;28;20386;-67
2022/04/20 01:29:55;;;;;;;2.47;1.42;;;22.50;35.80;;;;;;5033031;28;20423;-67
2022/04/20 01:32:21;;;;;;;2.30;1.50;;;22.50;35.80;;;;;;5031899;28;20398;-66
2022/04/20 01:34:47;;;;;;;1.80;1.42;;;22.50;35.80;;;;;;5032373;28;20411;-67
2022/04/20 01:37:12;;;;;;;2.33;1.43;;;22.50;35.70;;;;;;5031853;28;20435;-67
2022/04/20 01:39:38;;;;;;;3.17;1.60;;;22.50;35.70;;;;;;5032885;28;20397;-64
2022/04/20 01:42:04;;;;;;;3.30;1.55;;;22.50;35.90;;;;;;5031671;28;20394;-67
2022/04/20 01:44:30;;;;;;;2.05;1.40;;;22.50;35.70;;;;;;5032871;28;20867;-65
2022/04/20 01:46:55;;;;;;;2.27;1.60;;;22.50;35.80;;;;;;5032372;28;20434;-66
2022/04/20 01:49:21;;;;;;;2.00;1.58;;;22.50;35.80;;;;;;5032725;28;20764;-66
2022/04/20 01:51:47;;;;;;;2.17;1.47;;;22.50;35.70;;;;;;5031485;28;20494;-66
2022/04/20 01:54:13;;;;;;;2.00;1.67;;;22.50;35.80;;;;;;5032606;28;20389;-66
2022/04/20 01:56:39;;;;;;;1.85;1.50;;;22.50;35.70;;;;;;5032354;28;20486;-66
2022/04/20 01:59:05;;;;;;;1.90;1.60;;;22.50;35.60;;;;;;5032345;28;20422;-66
2022/04/20 02:04:15;;;;;;;4.65;1.80;;;22.40;35.50;;;;;;5032816;28;20422;-67
2022/04/20 02:06:41;;;;;;;2.20;1.63;;;22.40;35.60;;;;;;5032175;28;20845;-66
2022/04/20 02:09:06;;;;;;;2.38;1.67;;;22.40;35.50;;;;;;5032124;28;20415;-66
2022/04/20 02:11:32;;;;;;;3.07;2.00;;;22.40;35.60;;;;;;5032288;28;20937;-66
2022/04/20 02:13:59;;;;;;;2.70;2.08;;;22.40;35.40;;;;;;5032341;28;20390;-64
2022/04/20 02:16:25;;;;;;;2.70;1.90;;;22.40;35.50;;;;;;5031015;28;20396;-66
2022/04/20 02:18:51;;;;;;;2.85;2.13;;;22.40;35.40;;;;;;5031783;28;20390;-66
2022/04/20 02:21:17;;;;;;;2.17;1.90;;;22.40;35.40;;;;;;5032262;28;20478;-67
2022/04/20 02:23:42;;;;;;;2.38;2.03;;;22.30;35.30;;;;;;5032034;28;20410;-67
2022/04/20 02:26:08;;;;;;;2.63;1.93;;;22.40;35.30;;;;;;5032176;28;20479;-65
2022/04/20 02:28:34;;;;;;;3.00;2.13;;;22.30;35.20;;;;;;5032018;28;20502;-67
2022/04/20 02:30:59;;;;;;;2.80;2.10;;;22.40;35.20;;;;;;5031521;28;20882;-66
2022/04/20 02:33:25;;;;;;;3.08;2.10;;;22.40;35.20;;;;;;5032020;28;20394;-66
2022/04/20 02:35:51;;;;;;;2.30;1.90;;;22.30;35.30;;;;;;5031684;28;20783;-67
2022/04/20 02:38:18;;;;;;;2.42;2.10;;;22.30;35.30;;;;;;5031911;28;20840;-67
2022/04/20 02:40:44;;;;;;;2.53;2.17;;;22.30;35.60;;;;;;5030304;28;20497;-67
2022/04/20 02:43:10;;;;;;;4.10;2.35;;;22.40;35.70;;;;;;5031618;28;20918;-66
2022/04/20 02:45:36;;;;;;;2.80;2.50;;;22.30;35.40;;;;;;5031784;28;20495;-66
2022/04/20 02:48:03;;;;;;;2.40;1.92;;;22.30;35.50;;;;;;5031669;28;20429;-67
2022/04/20 02:50:29;;;;;;;2.25;2.03;;;22.30;35.80;;;;;;5031696;28;20442;-64
2022/04/20 02:52:55;;;;;;;2.28;2.08;;;22.30;35.80;;;;;;5031217;28;20379;-66
2022/04/20 02:55:21;;;;;;;2.80;2.00;;;22.30;35.80;;;;;;5031671;28;20521;-67
2022/04/20 02:57:46;;;;;;;3.00;2.13;;;22.30;35.90;;;;;;5031483;28;20407;-66
2022/04/20 03:00:13;;;;;;;2.20;2.00;;;22.30;35.70;;;;;;5031569;28;20391;-65
2022/04/20 03:02:39;;;;;;;2.70;2.38;;;22.30;35.80;;;;;;5031547;28;20454;-66
2022/04/20 03:05:05;;;;;;;2.30;2.10;;;22.30;35.80;;;;;;5031098;28;20414;-66
2022/04/20 03:07:31;;;;;;;2.35;2.03;;;22.30;35.70;;;;;;5031504;28;20458;-67
2022/04/20 03:09:57;;;;;;;2.58;2.38;;;22.30;35.70;;;;;;5030118;28;20506;-66
2022/04/20 03:12:22;;;;;;;2.10;1.90;;;22.30;35.70;;;;;;5030851;28;20391;-66
2022/04/20 03:14:48;;;;;;;3.22;2.13;;;22.30;36.10;;;;;;5031186;28;20834;-66
2022/04/20 03:17:14;;;;;;;3.03;2.20;;;22.30;35.70;;;;;;5031519;28;20453;-67
2022/04/20 03:19:39;;;;;;;3.22;2.30;;;22.30;35.70;;;;;;5031299;28;20408;-67
2022/04/20 03:22:05;;;;;;;2.37;2.17;;;22.30;35.70;;;;;;5031454;28;20787;-67
2022/04/20 03:24:31;;;;;;;2.78;2.25;;;22.30;35.70;;;;;;5031238;28;20791;-65
2022/04/20 03:26:56;;;;;;;2.70;2.50;;;22.30;35.80;;;;;;5030792;28;20395;-67
2022/04/20 03:29:22;;;;;;;3.65;2.20;;;22.20;35.60;;;;;;5031262;28;20402;-66
2022/04/20 03:31:48;;;;;;;2.40;2.20;;;22.20;35.60;;;;;;5031283;28;20859;-64
2022/04/20 03:34:14;;;;;;;2.58;2.22;;;22.20;35.40;;;;;;5031181;28;20452;-67
2022/04/20 03:36:39;;;;;;;3.03;2.33;;;22.20;35.40;;;;;;5031117;28;20403;-67
2022/04/20 03:39:06;;;;;;;3.03;2.38;;;22.20;35.30;;;;;;5030841;28;20383;-67
2022/04/20 03:41:31;;;;;;;2.83;2.20;;;22.20;35.40;;;;;;5031226;28;20470;-66
2022/04/20 03:43:57;;;;;;;3.25;2.30;;;22.20;35.40;;;;;;5029707;28;20986;-66
2022/04/20 03:46:24;;;;;;;2.60;2.10;;;22.20;35.50;;;;;;5030973;28;20419;-67
2022/04/20 03:48:50;;;;;;;2.63;2.20;;;22.20;35.60;;;;;;5030757;28;20445;-67
2022/04/20 03:51:16;;;;;;;2.65;2.28;;;22.20;35.80;;;;;;5031101;28;20497;-67
2022/04/20 03:53:42;;;;;;;2.97;2.40;;;22.20;35.60;;;;;;5031030;28;20383;-66
2022/04/20 03:56:08;;;;;;;3.60;2.20;;;22.20;35.50;;;;;;5031003;28;20467;-67
2022/04/20 03:58:34;;;;;;;2.70;2.15;;;22.20;36.00;;;;;;5030996;28;20735;-67
2022/04/20 04:01:01;;;;;;;2.90;2.00;;;22.20;35.60;;;;;;5030449;28;20478;-67
2022/04/20 04:03:26;;;;;;;2.60;2.40;;;22.20;35.40;;;;;;5031080;28;20379;-67
2022/04/20 04:05:52;;;;;;;3.00;2.30;;;22.20;35.50;;;;;;5030921;28;20406;-67
2022/04/20 04:08:18;;;;;;;2.53;2.20;;;22.20;35.50;;;;;;5030951;28;20433;-66
2022/04/20 04:10:44;;;;;;;3.67;2.23;;;22.20;35.70;;;;;;5030667;28;20791;-67
2022/04/20 04:13:09;;;;;;;2.40;2.05;;;22.10;35.60;;;;;;5030776;28;20855;-67
2022/04/20 04:15:35;;;;;;;2.33;2.00;;;22.20;35.80;;;;;;5030876;28;20418;-66
2022/04/20 04:18:02;;;;;;;3.40;2.17;;;22.10;35.60;;;;;;5030844;28;20375;-67
2022/04/20 04:20:28;;;;;;;2.83;2.10;;;22.20;35.40;;;;;;5030773;28;20395;-67
2022/04/20 04:22:55;;;;;;;2.80;2.30;;;22.10;35.20;;;;;;5028986;28;20390;-67
2022/04/20 04:25:20;;;;;;;2.38;2.10;;;22.10;35.60;;;;;;5030995;28;20461;-67
2022/04/20 04:27:47;;;;;;;2.28;2.08;;;22.10;35.30;;;;;;5034221;28;20379;-67
2022/04/20 04:30:13;;;;;;;2.50;2.13;;;22.10;35.40;;;;;;5034215;28;20510;-66
2022/04/20 04:32:39;;;;;;;2.42;1.92;;;22.10;35.60;;;;;;5034005;28;20391;-65
2022/04/20 04:35:06;;;;;;;2.58;2.38;;;22.10;35.60;;;;;;5033671;28;20419;-66
2022/04/20 04:37:33;;;;;;;3.58;2.30;;;22.10;35.40;;;;;;5034078;28;20391;-66
2022/04/20 04:39:59;;;;;;;3.08;2.53;;;22.10;35.40;;;;;;5034095;28;20928;-65
2022/04/20 04:42:26;;;;;;;3.10;2.30;;;22.10;35.30;;;;;;5034106;28;20402;-65
2022/04/20 04:44:51;;;;;;;2.90;2.30;;;22.10;35.30;;;;;;5033761;28;20387;-67
2022/04/20 04:50:03;;;;;;;2.97;2.30;;;22.10;35.20;;;;;;5033837;28;20418;-66
2022/04/20 04:52:29;;;;;;;3.00;2.55;;;22.10;35.00;;;;;;5033911;28;20755;-66
2022/04/20 04:54:55;;;;;;;5.93;2.83;;;22.00;34.30;;;;;;5032266;28;20383;-66
2022/04/20 04:57:20;;;;;;;6.28;3.47;;;22.00;34.30;;;;;;5033706;28;20391;-66
2022/04/20 04:59:46;;;;;;;6.23;3.50;;;21.90;36.10;;;;;;5033600;28;20743;-64
2022/04/20 05:02:12;;;;;;;3.80;2.90;;;21.90;36.20;;;;;;5016264;28;20411;-64
2022/04/20 05:04:42;;;;;;;6.37;3.10;;;21.90;36.10;;;;;;5012903;28;20450;-65
2022/04/20 05:07:09;;;;;;;4.93;2.75;;;21.90;35.50;;;;;;5006406;28;20485;-66
2022/04/20 05:09:35;;;;;;;5.18;2.70;;;21.80;35.80;;;;;;5005391;28;20426;-66
2022/04/20 05:12:01;;;;;;;4.70;2.80;;;21.80;36.00;;;;;;5003063;28;20389;-66
2022/04/20 05:14:28;;;;;;;6.45;2.67;;;21.80;36.20;;;;;;5004407;28;20895;-65
2022/04/20 05:16:55;;;;;;;4.53;2.50;;;21.80;36.00;;;;;;5001460;28;20394;-64
2022/04/20 05:19:21;;;;;;;7.05;2.65;;;21.80;36.40;;;;;;5009187;28;20404;-66
2022/04/20 05:21:47;;;;;;;4.85;2.30;;;21.70;36.40;;;;;;5001433;28;20401;-68
2022/04/20 05:24:14;;;;;;;4.60;2.23;;;21.70;36.60;;;;;;5001763;28;20484;-67
2022/04/20 05:26:42;;;;;;;6.00;2.70;;;21.70;36.70;;;;;;4999795;28;20474;-66
2022/04/20 05:29:08;;;;;;;5.65;2.45;;;21.80;37.00;;;;;;4998934;28;20791;-66
2022/04/20 05:31:33;;;;;;;6.53;2.20;;;21.70;36.90;;;;;;5003053;28;20397;-66
2022/04/20 05:34:00;;;;;;;4.15;2.20;;;21.70;37.00;;;;;;5002170;28;20481;-66
2022/04/20 05:41:39;;;;;;;5.15;2.17;;;21.70;37.20;;;;;;5000916;28;20404;-66
2022/04/20 05:41:56;;;;;;;5.38;2.75;;;21.80;37.40;;;;;;5002268;28;20421;-66
2022/04/20 05:44:21;;;;;;;5.75;3.40;;;21.80;38.80;;;;;;5000642;28;20407;-65
2022/04/20 05:46:47;;;;;;;8.25;3.20;;;21.80;38.20;;;;;;5002629;28;20388;-66
2022/04/20 05:49:13;;;;;;;4.50;2.80;;;21.90;39.50;;;;;;5001016;28;20437;-64
2022/04/20 05:51:38;;;;;;;6.27;2.60;;;21.90;38.50;;;;;;5000383;28;20500;-66
2022/04/20 05:54:04;;;;;;;7.50;2.95;;;21.90;38.50;;;;;;5006305;28;20389;-66
2022/04/20 05:56:30;;;;;;;5.33;2.70;;;21.90;38.20;;;;;;5004773;28;20396;-66
2022/04/20 05:58:57;;;;;;;5.20;2.53;;;21.90;38.30;;;;;;5010260;28;20385;-66
2022/04/20 06:01:24;;;;;;;4.32;2.38;;;21.90;38.50;;;;;;5002556;28;20527;-65
2022/04/20 06:03:50;;;;;;;5.35;2.38;;;21.80;38.00;;;;;;5000795;28;20898;-66
2022/04/20 06:06:16;;;;;;;4.03;2.28;;;21.90;38.40;;;;;;5001018;28;20427;-65
2022/04/20 06:08:42;;;;;;;3.47;2.10;;;21.90;38.30;;;;;;5007412;28;20439;-66
2022/04/20 06:11:08;;;;;;;2.97;2.10;;;21.90;38.20;;;;;;5011601;28;20558;-65
2022/04/20 06:13:34;;;;;;;3.58;2.10;;;22.00;38.20;;;;;;5012172;28;20384;-66
2022/04/20 06:16:00;;;;;;;3.55;2.00;;;22.00;38.30;;;;;;5012418;28;20408;-65
2022/04/20 06:18:25;;;;;;;4.22;1.90;;;22.00;38.20;;;;;;5012155;28;20408;-65
2022/04/20 06:20:51;;;;;;;4.53;2.20;;;22.00;38.20;;;;;;5007682;28;20405;-65
2022/04/20 06:23:22;;;;;;;4.70;1.90;;;22.10;38.00;;;;;;5000016;28;20398;-66
2022/04/20 06:25:48;;;;;;;5.07;2.17;;;22.10;38.90;;;;;;5002210;28;20388;-65
2022/04/20 06:28:14;;;;;;;5.03;2.08;;;22.00;38.10;;;;;;5002400;28;20397;-64
2022/04/20 06:30:39;;;;;;;4.03;2.20;;;22.00;38.80;;;;;;5003861;28;20827;-66
2022/04/20 06:33:05;;;;;;;12.13;2.20;;;21.90;38.60;;;;;;5001035;28;20383;-66
2022/04/20 06:35:31;;;;;;;14.60;2.57;;;21.90;39.20;;;;;;5001104;28;20532;-65
2022/04/20 06:37:56;;;;;;;6.53;1.90;;;22.00;38.80;;;;;;5004204;28;20414;-65
2022/04/20 06:40:22;;;;;;;3.40;1.80;;;22.00;38.90;;;;;;5001258;28;20894;-64
2022/04/20 06:42:48;;;;;;;6.28;2.17;;;22.00;38.50;;;;;;5000932;28;20389;-65
2022/04/20 06:45:13;;;;;;;6.53;2.10;;;22.10;38.40;;;;;;5001820;28;20399;-63
2022/04/20 06:47:39;;;;;;;4.97;2.10;;;22.20;38.20;;;;;;5000337;28;20394;-65
2022/04/20 06:50:05;;;;;;;4.88;2.25;;;22.20;37.70;;;;;;5001040;28;20448;-65
2022/04/20 07:00:44;;;;;;;4.28;2.00;;;22.40;37.40;;;;;;5000229;28;20983;-64
2022/04/20 07:03:09;;;;;;;4.10;2.20;;;22.40;37.30;;;;;;4999390;28;20479;-65
2022/04/20 07:05:35;;;;;;;4.90;1.90;;;22.40;37.00;;;;;;4999109;28;20881;-64
2022/04/20 07:08:01;;;;;;;3.85;1.92;;;22.50;37.30;;;;;;5000531;28;20731;-64
2022/04/20 07:10:27;;;;;;;3.67;1.80;;;22.40;37.00;;;;;;5001054;28;20422;-64
2022/04/20 07:12:53;;;;;;;3.00;1.90;;;22.50;36.80;;;;;;4999259;28;20433;-64
2022/04/20 07:15:20;;;;;;;4.47;2.17;;;22.50;36.70;;;;;;5010780;28;20424;-64
2022/04/20 07:17:46;;;;;;;2.67;1.80;;;22.60;36.70;;;;;;5011090;28;20389;-64
2022/04/20 07:20:17;;;;;;;3.15;1.80;;;22.60;36.50;;;;;;5008598;28;20393;-64
2022/04/20 07:22:50;;;;;;;3.55;2.00;;;22.60;36.50;;;;;;4999709;28;20444;-65
2022/04/20 07:25:17;;;;;;;3.03;1.90;;;22.60;36.50;;;;;;5000689;28;20407;-65
2022/04/20 07:27:47;;;;;;;5.20;2.28;;;22.70;36.50;;;;;;4999519;28;20473;-64
2022/04/20 07:30:12;;;;;;;2.67;2.05;;;22.70;36.50;;;;;;5002897;28;20414;-64
2022/04/20 07:32:38;;;;;;;2.70;1.98;;;22.70;36.80;;;;;;4998852;28;20747;-65
2022/04/20 07:35:04;;;;;;;2.88;1.80;;;22.70;36.30;;;;;;4999340;28;20462;-66
2022/04/20 07:37:31;;;;;;;3.17;1.88;;;22.80;36.50;;;;;;5000156;28;20725;-66
2022/04/20 07:39:57;;;;;;;3.67;2.00;;;22.80;36.40;;;;;;4998834;28;20445;-65
2022/04/20 07:42:23;;;;;;;2.70;1.85;;;22.80;36.30;;;;;;5000754;28;20389;-64
2022/04/20 07:44:49;;;;;;;3.90;2.03;;;22.80;36.30;;;;;;4999756;28;20399;-65
2022/04/20 07:47:15;;;;;;;3.83;1.80;;;22.80;36.00;;;;;;5004428;28;20455;-67
2022/04/20 07:52:26;;;;;;;3.38;2.10;;;22.80;36.40;;;;;;5009172;28;20896;-65
2022/04/20 07:54:51;;;;;;;3.15;2.10;;;22.90;36.20;;;;;;5005221;28;20455;-64
2022/04/20 07:57:17;;;;;;;5.63;2.60;;;22.90;36.10;;;;;;5000271;28;20404;-66
2022/04/20 07:59:43;;;;;;;3.83;2.25;;;22.90;36.20;;;;;;5002172;28;20463;-65
2022/04/20 08:02:09;;;;;;;4.00;2.20;;;23.00;36.80;;;;;;5002602;28;20874;-65
2022/04/20 08:04:35;;;;;;;3.60;2.15;;;23.00;36.00;;;;;;5004180;28;20432;-66
2022/04/20 08:07:02;;;;;;;3.53;2.10;;;23.00;36.30;;;;;;5003320;28;20489;-64
2022/04/20 08:09:27;;;;;;;3.25;2.22;;;23.00;36.30;;;;;;5000881;28;20553;-65
2022/04/20 08:11:53;;;;;;;4.30;2.10;;;23.10;36.30;;;;;;5004141;28;20492;-65
2022/04/20 08:14:20;;;;;;;3.87;2.13;;;23.10;35.80;;;;;;5003132;28;20390;-65
2022/04/20 08:16:47;;;;;;;4.43;2.40;;;23.00;36.10;;;;;;5002498;28;20908;-65
2022/04/20 08:19:12;;;;;;;3.92;2.20;;;23.00;35.90;;;;;;5004115;28;20399;-66
2022/04/20 08:21:38;;;;;;;4.43;2.20;;;23.10;35.70;;;;;;5001830;28;20391;-67
2022/04/20 08:24:04;;;;;;;4.85;2.20;;;23.10;35.40;;;;;;5004931;28;20398;-65
2022/04/20 08:26:30;;;;;;;9.63;3.72;;;23.10;35.60;;;;;;5002180;28;20390;-65
2022/04/20 08:28:56;;;;;;;7.60;2.80;;;23.20;40.00;;;;;;5003522;28;20877;-66
2022/04/20 08:31:22;;;;;;;8.33;2.90;;;23.40;37.80;;;;;;5002855;28;20428;-68
2022/04/20 08:33:47;;;;;;;5.50;2.67;;;23.50;38.40;;;;;;5001823;28;20402;-66
2022/04/20 08:36:14;;;;;;;7.10;2.60;;;23.50;38.50;;;;;;5003384;28;20491;-64
2022/04/20 08:38:40;;;;;;;6.53;2.60;;;23.50;38.10;;;;;;5003063;28;20392;-65
2022/04/20 08:41:08;;;;;;;6.05;2.25;;;23.50;39.60;;;;;;5001284;28;20411;-64
2022/04/20 08:43:38;;;;;;;6.97;2.45;;;23.50;39.50;;;;;;5003642;28;20478;-66
2022/04/20 08:46:06;;;;;;;6.05;2.38;;;23.50;39.70;;;;;;5003617;28;20497;-66
2022/04/20 08:48:32;;;;;;;8.77;2.55;;;23.50;39.90;;;;;;5000999;28;20393;-67
2022/04/20 08:51:02;;;;;;;9.68;2.47;;;23.50;39.90;;;;;;5002354;28;20429;-67
2022/04/20 08:53:29;;;;;;;3.78;2.03;;;23.40;39.50;;;;;;5001200;28;20458;-64
2022/04/20 08:58:43;;;;;;;3.33;1.80;;;23.50;37.20;;;;;;5002562;28;20388;-64
2022/04/20 09:01:12;;;;;;;3.90;1.90;;;23.60;36.90;;;;;;5003125;28;20395;-64
2022/04/20 09:03:39;;;;;;;3.80;1.90;;;23.60;36.90;;;;;;5002006;28;20438;-65
2022/04/20 09:06:06;;;;;;;3.33;1.90;;;23.70;36.60;;;;;;5001749;28;20500;-65
2022/04/20 09:08:33;;;;;;;4.50;2.00;;;23.70;36.70;;;;;;5002611;28;20475;-65
2022/04/20 09:11:00;;;;;;;4.60;3.50;;;23.70;36.80;;;;;;5001041;28;20418;-65
2022/04/20 09:13:35;;;;;;;5.00;2.42;;;23.80;37.40;;;;;;5001224;28;20389;-65
2022/04/20 09:16:09;;;;;;;3.70;2.30;;;23.90;37.10;;;;;;5002442;28;20399;-65
2022/04/20 09:18:35;;;;;;;3.95;2.10;;;23.90;36.70;;;;;;5002139;28;20407;-66
2022/04/20 09:21:09;;;;;;;5.28;1.90;;;24.00;36.80;;;;;;5000904;28;20760;-64
2022/04/20 09:23:35;;;;;;;4.27;2.00;;;24.00;36.90;;;;;;5001089;28;20484;-66
2022/04/20 09:26:17;;;;;;;4.00;1.80;;;24.10;37.20;;;;;;5001895;28;20393;-65
2022/04/20 09:29:04;;;;;;;5.10;1.73;;;24.20;36.90;;;;;;5001378;28;20478;-65
2022/04/20 09:31:51;;;;;;;3.55;1.75;;;24.30;37.00;;;;;;5001364;28;20515;-65
2022/04/20 09:34:28;;;;;;;4.78;1.90;;;24.40;36.90;;;;;;5000886;28;20394;-65
2022/04/20 09:36:55;;;;;;;4.13;1.87;;;24.40;36.90;;;;;;5001575;28;20379;-65
2022/04/20 09:39:20;;;;;;;3.30;1.67;;;24.50;36.80;;;;;;5001044;28;20898;-66
2022/04/20 09:41:59;;;;;;;2.30;1.60;;;24.50;36.80;;;;;;5002121;28;20426;-64
2022/04/20 09:44:26;;;;;;;3.67;1.80;;;24.50;36.60;;;;;;5001886;28;21004;-65
2022/04/20 09:50:02;;;;;;;3.20;1.70;;;24.60;36.20;;;;;;5001275;28;20422;-65
2022/04/20 09:52:38;;;;;;;2.45;1.80;;;24.70;37.20;;;;;;5001456;28;20413;-66
2022/04/20 09:55:06;;;;;;;2.40;1.60;;;24.80;36.10;;;;;;5003096;28;20429;-66
2022/04/20 09:57:32;;;;;;;3.00;1.70;;;24.80;36.30;;;;;;5003319;28;20479;-65
2022/04/20 09:59:59;;;;;;;4.05;1.80;;;24.80;36.10;;;;;;5012737;28;21303;-65
2022/04/20 10:02:27;;;;;;;3.00;1.70;;;24.90;36.00;;;;;;5013353;28;20756;-64
2022/04/20 10:04:53;;;;;;;3.35;1.50;;;25.00;36.10;;;;;;5012431;28;20416;-66
2022/04/20 10:07:19;;;;;;;2.67;1.50;;;25.00;36.10;;;;;;5002693;28;20424;-65
2022/04/20 10:09:45;;;;;;;4.13;1.70;;;25.00;35.80;;;;;;4997617;28;20453;-66
2022/04/20 10:12:15;;;;;;;4.05;1.70;;;25.10;35.60;;;;;;5001708;28;20415;-65
2022/04/20 10:17:28;;;;;;;3.47;1.63;;;25.20;35.60;;;;;;5008292;28;20443;-65
2022/04/20 10:19:54;;;;;;;3.25;1.40;;;25.30;35.50;;;;;;5005491;28;20400;-65
2022/04/20 10:22:22;;;;;;;3.88;1.50;;;25.30;35.10;;;;;;5012201;28;20757;-68
2022/04/20 10:24:53;;;;;;;5.50;1.75;;;25.50;35.10;;;;;;5012315;28;20408;-67
2022/04/20 10:27:29;;;;;;;3.40;1.50;;;25.40;35.00;;;;;;5011772;28;20393;-69
2022/04/20 10:29:59;;;;;;;6.07;1.70;;;25.40;34.90;;;;;;5012959;28;20412;-67
2022/04/20 10:32:28;;;;;;;8.90;1.90;;;25.40;34.90;;;;;;5012181;28;20396;-67
2022/04/20 10:34:54;;;;;;;6.63;1.63;;;25.40;34.80;;;;;;5012233;28;20761;-67
2022/04/20 10:37:25;;;;;;;8.52;1.80;;;25.50;34.90;;;;;;5011491;28;20921;-69
2022/04/20 10:39:53;;;;;;;10.07;1.85;;;25.60;34.80;;;;;;5011713;28;20865;-68
2022/04/20 10:42:20;;;;;;;10.50;2.03;;;25.60;34.90;;;;;;5011367;28;20396;-67
2022/04/20 10:45:05;;;;;;;7.40;1.92;;;25.60;35.10;;;;;;5011101;28;20389;-67
2022/04/20 10:47:42;;;;;;;6.28;1.90;;;25.50;35.10;;;;;;5011022;28;20385;-68
2022/04/20 10:50:13;;;;;;;6.30;1.80;;;25.80;35.20;;;;;;5010017;28;20471;-66
2022/04/20 10:52:41;;;;;;;6.03;1.70;;;25.90;35.40;;;;;;5011877;28;20430;-67
2022/04/20 10:55:11;;;;;;;5.90;1.70;;;25.80;35.30;;;;;;5009621;28;20511;-68
2022/04/20 10:57:42;;;;;;;5.07;1.80;;;26.00;35.50;;;;;;5023158;28;20389;-65
2022/04/20 11:00:17;;;;;;;4.45;1.60;;;26.00;35.40;;;;;;5031487;28;20394;-67
2022/04/20 11:02:50;;;;;;;4.65;1.50;;;26.10;35.80;;;;;;5031172;28;20387;-72
2022/04/20 11:05:20;;;;;;;3.63;1.52;;;26.20;35.80;;;;;;5009657;28;20540;-69
2022/04/20 11:08:04;;;;;;;3.25;1.50;;;26.30;35.20;;;;;;4999106;28;20394;-69
2022/04/20 11:10:31;;;;;;;3.92;1.77;;;26.30;34.60;;;;;;5000837;28;20419;-69
2022/04/20 11:19:01;;;;;;;3.07;1.63;;;26.60;34.40;;;;;;5006378;28;20544;-69
2022/04/20 11:21:26;;;;;;;3.85;1.60;;;26.60;34.80;;;;;;4998770;28;20409;-68
2022/04/20 11:23:58;;;;;;;4.07;2.10;;;26.70;34.60;;;;;;5001826;28;20456;-69
2022/04/20 11:26:34;;;;;;;3.17;1.90;;;26.90;37.10;;;;;;4999292;28;20417;-68
2022/04/20 11:29:15;;;;;;;3.13;1.67;;;26.90;36.10;;;;;;4999440;28;20404;-69
2022/04/20 11:31:51;;;;;;;3.10;1.95;;;27.00;32.10;;;;;;5001331;28;20430;-69
2022/04/20 11:34:20;;;;;;;4.00;2.03;;;26.90;31.60;;;;;;5001918;28;20452;-69
2022/04/20 11:37:00;;;;;;;3.42;1.98;;;27.00;31.60;;;;;;5001892;28;20403;-69
2022/04/20 11:39:27;;;;;;;9.55;2.40;;;27.00;31.40;;;;;;5002446;28;20449;-69
2022/04/20 11:42:04;;;;;;;8.20;2.33;;;27.00;31.50;;;;;;5004369;28;20404;-68
2022/04/20 11:44:34;;;;;;;7.50;3.45;;;27.10;32.80;;;;;;5004726;28;20746;-69
2022/04/20 11:47:05;;;;;;;13.68;11.98;;;26.90;33.40;;;;;;5006577;28;20387;-69
2022/04/20 11:49:41;;;;;;;67.80;62.30;;;26.80;33.40;;;;;;5001201;28;20402;-69
2022/04/20 11:52:16;;;;;;;197.95;180.10;;;26.70;34.10;;;;;;5005101;28;20381;-68
2022/04/20 11:54:46;;;;;;;410.70;372.75;;;26.70;33.50;;;;;;5003047;28;20418;-69
2022/04/20 11:57:13;;;;;;;321.83;292.55;;;26.60;33.70;;;;;;5003044;28;20460;-66
2022/04/20 11:59:43;;;;;;;507.47;462.47;;;26.50;33.10;;;;;;5004792;28;20445;-68
2022/04/20 12:02:13;;;;;;;973.45;868.10;;;26.40;33.70;;;;;;5002683;28;20409;-68
2022/04/20 12:04:39;;;;;;;794.58;719.10;;;26.50;33.40;;;;;;5003461;28;20389;-68
2022/04/20 12:07:05;;;;;;;760.28;688.58;;;26.60;33.20;;;;;;5003954;28;20394;-67
2022/04/20 12:09:35;;;;;;;697.33;632.60;;;26.50;32.80;;;;;;5001303;28;20488;-67
2022/04/20 12:12:08;;;;;;;682.78;619.50;;;26.40;32.60;;;;;;5003218;28;20434;-66
2022/04/20 12:14:37;;;;;;;674.28;611.65;;;26.40;32.40;;;;;;5002292;28;20396;-67
2022/04/20 12:17:20;;;;;;;636.05;577.58;;;26.30;32.40;;;;;;5001886;28;20404;-71
2022/04/20 12:19:46;;;;;;;620.28;563.15;;;26.30;32.40;;;;;;5004080;28;20401;-69
2022/04/20 12:22:14;;;;;;;614.67;558.22;;;26.20;32.30;;;;;;5002375;28;20398;-70
2022/04/20 12:24:43;;;;;;;560.83;508.60;;;26.20;32.40;;;;;;5003377;28;20893;-70
2022/04/20 12:27:20;;;;;;;499.13;451.95;;;26.00;32.40;;;;;;5004125;28;21626;-68
2022/04/20 12:29:54;;;;;;;446.90;402.80;;;25.90;32.20;;;;;;5003770;28;20410;-69
2022/04/20 12:32:30;;;;;;;381.10;343.92;;;25.80;32.10;;;;;;5001908;28;20417;-70
2022/04/20 12:35:01;;;;;;;326.60;294.83;;;25.80;32.00;;;;;;5000678;28;20469;-71
2022/04/20 12:37:29;;;;;;;326.05;294.38;;;25.70;31.70;;;;;;5004192;28;20382;-69
2022/04/20 12:39:56;;;;;;;305.73;276.33;;;25.70;31.90;;;;;;5002307;28;20413;-69
2022/04/20 12:42:23;;;;;;;287.85;260.27;;;25.60;31.70;;;;;;5002915;28;20446;-69
2022/04/20 12:44:54;;;;;;;261.70;236.45;;;25.70;31.70;;;;;;5003082;28;20404;-67
2022/04/20 12:47:20;;;;;;;250.63;226.80;;;25.80;32.00;;;;;;5002018;28;20443;-67
2022/04/20 12:49:48;;;;;;;235.90;213.07;;;25.70;32.10;;;;;;5003199;28;20501;-70
2022/04/20 12:52:15;;;;;;;223.63;201.82;;;25.70;32.10;;;;;;5001599;28;20394;-68
2022/04/20 12:54:55;;;;;;;211.20;190.63;;;25.80;32.50;;;;;;5002952;28;20454;-67
2022/04/20 13:03:00;;;;;;;172.13;155.35;;;25.70;32.60;;;;;;5002018;28;20453;-70
2022/04/20 13:05:25;;;;;;;163.70;147.63;;;25.80;32.70;;;;;;5002020;28;20837;-69
2022/04/20 13:07:51;;;;;;;155.82;140.82;;;25.80;32.70;;;;;;5003672;28;20473;-67
2022/04/20 13:10:17;;;;;;;150.83;136.30;;;25.80;32.70;;;;;;4993524;28;20424;-70
2022/04/20 13:12:53;;;;;;;141.10;127.47;;;25.80;32.80;;;;;;4994048;28;20426;-69
2022/04/20 13:15:20;;;;;;;136.02;122.90;;;25.80;32.80;;;;;;4993724;28;20802;-70
2022/04/20 13:17:47;;;;;;;122.45;110.90;;;25.70;32.40;;;;;;4992586;28;20406;-71
2022/04/20 13:20:13;;;;;;;106.78;96.38;;;25.70;32.50;;;;;;4993867;28;20395;-71
2022/04/20 13:22:40;;;;;;;108.10;97.72;;;25.70;32.00;;;;;;4993803;28;20402;-70
2022/04/20 13:27:56;;;;;;;80.55;72.70;;;25.80;31.60;;;;;;4993990;28;20386;-72